sensor_id;sensor_type;location;lat;lon;timestamp;P1;durP1;ratioP1;P2;durP2;ratioP2
22070;SDS011;11200;51.488;6.668;2023-07-30T00:02:17;1.90;;;1.70;;
22070;SDS011;11200;51.488;6.668;2023-07-30T00:04:44;1.70;;;1.42;;
22070;SDS011;11200;51.488;6.668;2023-07-30T00:07:10;1.90;;;1.60;;
22070;SDS011;11200;51.488;6.668;2023-07-30T00:09:36;2.15;;;1.50;;
22070;SDS011;11200;51.488;6.668;2023-07-30T00:12:03;1.65;;;1.52;;
22070;SDS011;11200;51.488;6.668;2023-07-30T00:14:29;2.28;;;1.67;;
22070;SDS011;11200;51.488;6.668;2023-07-30T00:16:55;1.83;;;1.52;;
22070;SDS011;11200;51.488;6.668;2023-07-30T00:19:21;1.90;;;1.65;;
22070;SDS011;11200;51.488;6.668;2023-07-30T00:21:46;2.00;;;1.70;;
22070;SDS011;11200;51.488;6.668;2023-07-30T00:24:12;3.13;;;1.88;;
22070;SDS011;11200;51.488;6.668;2023-07-30T00:26:38;3.90;;;1.83;;
22070;SDS011;11200;51.488;6.668;2023-07-30T00:29:04;1.65;;;1.55;;
22070;SDS011;11200;51.488;6.668;2023-07-30T00:31:30;1.85;;;1.63;;
22070;SDS011;11200;51.488;6.668;2023-07-30T00:33:55;2.63;;;1.75;;
22070;SDS011;11200;51.488;6.668;2023-07-30T00:36:21;3.05;;;1.80;;
22070;SDS011;11200;51.488;6.668;2023-07-30T00:38:47;2.17;;;1.65;;
22070;SDS011;11200;51.488;6.668;2023-07-30T00:41:12;2.60;;;1.75;;
22070;SDS011;11200;51.488;6.668;2023-07-30T00:43:38;2.08;;;1.73;;
22070;SDS011;11200;51.488;6.668;2023-07-30T00:46:04;2.40;;;1.70;;
22070;SDS011;11200;51.488;6.668;2023-07-30T00:48:30;2.28;;;1.73;;
22070;SDS011;11200;51.488;6.668;2023-07-30T00:50:57;1.92;;;1.67;;
22070;SDS011;11200;51.488;6.668;2023-07-30T00:53:24;3.00;;;1.73;;
22070;SDS011;11200;51.488;6.668;2023-07-30T00:55:51;2.60;;;1.58;;
22070;SDS011;11200;51.488;6.668;2023-07-30T00:58:17;1.85;;;1.58;;
22070;SDS011;11200;51.488;6.668;2023-07-30T01:00:45;2.08;;;1.90;;
22070;SDS011;11200;51.488;6.668;2023-07-30T01:03:12;2.63;;;1.65;;
22070;SDS011;11200;51.488;6.668;2023-07-30T01:05:37;3.13;;;1.92;;
22070;SDS011;11200;51.488;6.668;2023-07-30T01:08:03;2.97;;;1.70;;
22070;SDS011;11200;51.488;6.668;2023-07-30T01:10:29;2.08;;;1.70;;
22070;SDS011;11200;51.488;6.668;2023-07-30T01:12:56;2.20;;;1.63;;
22070;SDS011;11200;51.488;6.668;2023-07-30T01:15:27;1.95;;;1.70;;
22070;SDS011;11200;51.488;6.668;2023-07-30T01:17:53;2.22;;;1.77;;
22070;SDS011;11200;51.488;6.668;2023-07-30T01:20:20;2.00;;;1.80;;
22070;SDS011;11200;51.488;6.668;2023-07-30T01:22:46;1.88;;;1.70;;
22070;SDS011;11200;51.488;6.668;2023-07-30T01:25:12;3.05;;;1.92;;
22070;SDS011;11200;51.488;6.668;2023-07-30T01:27:39;3.58;;;2.00;;
22070;SDS011;11200;51.488;6.668;2023-07-30T01:32:43;2.33;;;1.77;;
22070;SDS011;11200;51.488;6.668;2023-07-30T01:35:10;2.13;;;1.70;;
22070;SDS011;11200;51.488;6.668;2023-07-30T01:37:39;2.15;;;1.88;;
22070;SDS011;11200;51.488;6.668;2023-07-30T01:40:08;2.15;;;1.85;;
22070;SDS011;11200;51.488;6.668;2023-07-30T01:42:34;2.85;;;1.88;;
22070;SDS011;11200;51.488;6.668;2023-07-30T01:45:00;1.65;;;1.55;;
22070;SDS011;11200;51.488;6.668;2023-07-30T01:47:26;1.92;;;1.73;;
22070;SDS011;11200;51.488;6.668;2023-07-30T01:49:51;2.13;;;1.80;;
22070;SDS011;11200;51.488;6.668;2023-07-30T01:52:17;2.05;;;1.83;;
22070;SDS011;11200;51.488;6.668;2023-07-30T01:54:42;1.88;;;1.60;;
22070;SDS011;11200;51.488;6.668;2023-07-30T01:57:08;2.03;;;1.80;;
22070;SDS011;11200;51.488;6.668;2023-07-30T01:59:34;3.42;;;1.98;;
22070;SDS011;11200;51.488;6.668;2023-07-30T02:01:59;1.88;;;1.70;;
22070;SDS011;11200;51.488;6.668;2023-07-30T02:04:26;2.75;;;1.75;;
22070;SDS011;11200;51.488;6.668;2023-07-30T02:06:52;1.90;;;1.70;;
22070;SDS011;11200;51.488;6.668;2023-07-30T02:09:18;2.08;;;1.70;;
22070;SDS011;11200;51.488;6.668;2023-07-30T02:11:43;2.63;;;1.80;;
22070;SDS011;11200;51.488;6.668;2023-07-30T02:14:09;2.70;;;1.70;;
22070;SDS011;11200;51.488;6.668;2023-07-30T02:16:35;2.20;;;1.88;;
22070;SDS011;11200;51.488;6.668;2023-07-30T02:19:01;2.45;;;1.70;;
22070;SDS011;11200;51.488;6.668;2023-07-30T02:21:27;2.08;;;1.83;;
22070;SDS011;11200;51.488;6.668;2023-07-30T02:23:52;2.75;;;1.73;;
22070;SDS011;11200;51.488;6.668;2023-07-30T02:26:18;2.42;;;1.73;;
22070;SDS011;11200;51.488;6.668;2023-07-30T02:28:44;3.10;;;2.00;;
22070;SDS011;11200;51.488;6.668;2023-07-30T02:31:09;2.78;;;1.80;;
22070;SDS011;11200;51.488;6.668;2023-07-30T02:33:35;2.08;;;1.88;;
22070;SDS011;11200;51.488;6.668;2023-07-30T02:36:01;2.28;;;2.05;;
22070;SDS011;11200;51.488;6.668;2023-07-30T02:38:27;2.17;;;1.67;;
22070;SDS011;11200;51.488;6.668;2023-07-30T02:40:52;2.67;;;1.83;;
22070;SDS011;11200;51.488;6.668;2023-07-30T02:43:18;3.03;;;2.00;;
22070;SDS011;11200;51.488;6.668;2023-07-30T02:45:46;2.08;;;1.85;;
22070;SDS011;11200;51.488;6.668;2023-07-30T02:48:14;5.13;;;1.95;;
22070;SDS011;11200;51.488;6.668;2023-07-30T02:50:39;2.50;;;1.70;;
22070;SDS011;11200;51.488;6.668;2023-07-30T02:53:05;2.13;;;1.92;;
22070;SDS011;11200;51.488;6.668;2023-07-30T02:55:31;2.10;;;1.90;;
22070;SDS011;11200;51.488;6.668;2023-07-30T02:57:56;2.30;;;1.98;;
22070;SDS011;11200;51.488;6.668;2023-07-30T03:00:22;2.90;;;1.90;;
22070;SDS011;11200;51.488;6.668;2023-07-30T03:02:48;2.30;;;2.10;;
22070;SDS011;11200;51.488;6.668;2023-07-30T03:05:13;2.40;;;2.00;;
22070;SDS011;11200;51.488;6.668;2023-07-30T03:07:39;2.30;;;1.90;;
22070;SDS011;11200;51.488;6.668;2023-07-30T03:10:05;2.42;;;1.80;;
22070;SDS011;11200;51.488;6.668;2023-07-30T03:12:31;2.50;;;1.88;;
22070;SDS011;11200;51.488;6.668;2023-07-30T03:14:56;2.92;;;1.75;;
22070;SDS011;11200;51.488;6.668;2023-07-30T03:17:22;2.08;;;1.63;;
22070;SDS011;11200;51.488;6.668;2023-07-30T03:19:48;2.42;;;1.98;;
22070;SDS011;11200;51.488;6.668;2023-07-30T03:22:13;2.38;;;1.77;;
22070;SDS011;11200;51.488;6.668;2023-07-30T03:24:39;2.17;;;1.80;;
22070;SDS011;11200;51.488;6.668;2023-07-30T03:27:05;2.47;;;1.73;;
22070;SDS011;11200;51.488;6.668;2023-07-30T03:29:31;2.38;;;2.00;;
22070;SDS011;11200;51.488;6.668;2023-07-30T03:31:57;2.10;;;1.80;;
22070;SDS011;11200;51.488;6.668;2023-07-30T03:34:22;2.00;;;1.77;;
22070;SDS011;11200;51.488;6.668;2023-07-30T03:36:48;2.15;;;1.85;;
22070;SDS011;11200;51.488;6.668;2023-07-30T03:39:14;2.35;;;1.88;;
22070;SDS011;11200;51.488;6.668;2023-07-30T03:41:39;3.08;;;1.70;;
22070;SDS011;11200;51.488;6.668;2023-07-30T03:44:05;3.97;;;2.00;;
22070;SDS011;11200;51.488;6.668;2023-07-30T03:46:31;2.42;;;1.90;;
22070;SDS011;11200;51.488;6.668;2023-07-30T03:48:56;2.47;;;2.00;;
22070;SDS011;11200;51.488;6.668;2023-07-30T03:51:22;2.63;;;2.20;;
22070;SDS011;11200;51.488;6.668;2023-07-30T03:53:48;2.55;;;2.00;;
22070;SDS011;11200;51.488;6.668;2023-07-30T03:56:13;4.22;;;2.03;;
22070;SDS011;11200;51.488;6.668;2023-07-30T03:58:39;3.92;;;2.10;;
22070;SDS011;11200;51.488;6.668;2023-07-30T04:01:05;2.20;;;1.90;;
22070;SDS011;11200;51.488;6.668;2023-07-30T04:03:33;2.78;;;2.00;;
22070;SDS011;11200;51.488;6.668;2023-07-30T04:05:59;2.80;;;2.10;;
22070;SDS011;11200;51.488;6.668;2023-07-30T04:08:25;2.58;;;1.90;;
22070;SDS011;11200;51.488;6.668;2023-07-30T04:10:50;2.58;;;1.85;;
22070;SDS011;11200;51.488;6.668;2023-07-30T04:13:16;2.17;;;1.75;;
22070;SDS011;11200;51.488;6.668;2023-07-30T04:15:42;2.55;;;1.80;;
22070;SDS011;11200;51.488;6.668;2023-07-30T04:18:07;4.47;;;2.50;;
22070;SDS011;11200;51.488;6.668;2023-07-30T04:20:33;3.28;;;2.28;;
22070;SDS011;11200;51.488;6.668;2023-07-30T04:22:58;3.78;;;2.28;;
22070;SDS011;11200;51.488;6.668;2023-07-30T04:25:24;2.72;;;2.00;;
22070;SDS011;11200;51.488;6.668;2023-07-30T04:27:50;2.33;;;1.98;;
22070;SDS011;11200;51.488;6.668;2023-07-30T04:30:15;2.50;;;2.00;;
22070;SDS011;11200;51.488;6.668;2023-07-30T04:32:41;3.60;;;2.08;;
22070;SDS011;11200;51.488;6.668;2023-07-30T04:35:07;3.65;;;2.03;;
22070;SDS011;11200;51.488;6.668;2023-07-30T04:37:33;3.17;;;1.92;;
22070;SDS011;11200;51.488;6.668;2023-07-30T04:39:58;3.58;;;1.90;;
22070;SDS011;11200;51.488;6.668;2023-07-30T04:42:24;2.60;;;2.13;;
22070;SDS011;11200;51.488;6.668;2023-07-30T04:44:50;2.60;;;2.00;;
22070;SDS011;11200;51.488;6.668;2023-07-30T04:47:15;3.88;;;2.00;;
22070;SDS011;11200;51.488;6.668;2023-07-30T04:49:41;2.75;;;2.00;;
22070;SDS011;11200;51.488;6.668;2023-07-30T04:52:07;2.35;;;2.00;;
22070;SDS011;11200;51.488;6.668;2023-07-30T04:54:33;2.80;;;2.30;;
22070;SDS011;11200;51.488;6.668;2023-07-30T04:57:01;2.75;;;2.00;;
22070;SDS011;11200;51.488;6.668;2023-07-30T04:59:27;3.25;;;2.15;;
22070;SDS011;11200;51.488;6.668;2023-07-30T05:01:53;3.92;;;2.38;;
22070;SDS011;11200;51.488;6.668;2023-07-30T05:04:18;3.47;;;2.15;;
22070;SDS011;11200;51.488;6.668;2023-07-30T05:06:44;3.92;;;2.38;;
22070;SDS011;11200;51.488;6.668;2023-07-30T05:09:10;4.00;;;2.38;;
22070;SDS011;11200;51.488;6.668;2023-07-30T05:11:36;4.43;;;2.45;;
22070;SDS011;11200;51.488;6.668;2023-07-30T05:14:03;2.92;;;2.10;;
22070;SDS011;11200;51.488;6.668;2023-07-30T05:16:29;2.47;;;2.03;;
22070;SDS011;11200;51.488;6.668;2023-07-30T05:18:54;3.78;;;2.17;;
22070;SDS011;11200;51.488;6.668;2023-07-30T05:21:20;3.22;;;2.20;;
22070;SDS011;11200;51.488;6.668;2023-07-30T05:23:46;3.85;;;2.40;;
22070;SDS011;11200;51.488;6.668;2023-07-30T05:26:12;3.08;;;2.30;;
22070;SDS011;11200;51.488;6.668;2023-07-30T05:28:38;4.30;;;2.15;;
22070;SDS011;11200;51.488;6.668;2023-07-30T05:31:04;2.95;;;2.25;;
22070;SDS011;11200;51.488;6.668;2023-07-30T05:33:30;3.45;;;2.10;;
22070;SDS011;11200;51.488;6.668;2023-07-30T05:35:56;4.60;;;2.50;;
22070;SDS011;11200;51.488;6.668;2023-07-30T05:38:21;3.55;;;2.35;;
22070;SDS011;11200;51.488;6.668;2023-07-30T05:40:47;3.08;;;2.45;;
22070;SDS011;11200;51.488;6.668;2023-07-30T05:43:13;3.60;;;2.10;;
22070;SDS011;11200;51.488;6.668;2023-07-30T05:45:39;2.35;;;1.90;;
22070;SDS011;11200;51.488;6.668;2023-07-30T05:48:04;3.25;;;2.30;;
22070;SDS011;11200;51.488;6.668;2023-07-30T05:50:30;4.00;;;2.30;;
22070;SDS011;11200;51.488;6.668;2023-07-30T05:52:56;5.60;;;2.70;;
22070;SDS011;11200;51.488;6.668;2023-07-30T05:55:21;4.32;;;2.63;;
22070;SDS011;11200;51.488;6.668;2023-07-30T05:57:47;4.63;;;2.45;;
22070;SDS011;11200;51.488;6.668;2023-07-30T06:00:13;4.40;;;2.50;;
22070;SDS011;11200;51.488;6.668;2023-07-30T06:02:38;3.13;;;2.17;;
22070;SDS011;11200;51.488;6.668;2023-07-30T06:05:04;4.63;;;2.30;;
22070;SDS011;11200;51.488;6.668;2023-07-30T06:07:31;3.70;;;2.42;;
22070;SDS011;11200;51.488;6.668;2023-07-30T06:09:57;4.70;;;2.58;;
22070;SDS011;11200;51.488;6.668;2023-07-30T06:12:22;3.80;;;2.60;;
22070;SDS011;11200;51.488;6.668;2023-07-30T06:14:48;3.55;;;2.10;;
22070;SDS011;11200;51.488;6.668;2023-07-30T06:17:14;5.75;;;2.50;;
22070;SDS011;11200;51.488;6.668;2023-07-30T06:19:39;4.05;;;2.40;;
22070;SDS011;11200;51.488;6.668;2023-07-30T06:22:05;5.00;;;2.20;;
22070;SDS011;11200;51.488;6.668;2023-07-30T06:24:31;4.10;;;2.22;;
22070;SDS011;11200;51.488;6.668;2023-07-30T06:26:56;4.97;;;2.63;;
22070;SDS011;11200;51.488;6.668;2023-07-30T06:29:22;3.65;;;2.30;;
22070;SDS011;11200;51.488;6.668;2023-07-30T06:31:47;3.42;;;2.30;;
22070;SDS011;11200;51.488;6.668;2023-07-30T06:34:13;3.88;;;2.22;;
22070;SDS011;11200;51.488;6.668;2023-07-30T06:36:39;3.28;;;2.20;;
22070;SDS011;11200;51.488;6.668;2023-07-30T06:39:05;4.50;;;2.65;;
22070;SDS011;11200;51.488;6.668;2023-07-30T06:41:31;3.53;;;2.35;;
22070;SDS011;11200;51.488;6.668;2023-07-30T06:43:56;4.97;;;2.67;;
22070;SDS011;11200;51.488;6.668;2023-07-30T06:46:22;3.70;;;2.08;;
22070;SDS011;11200;51.488;6.668;2023-07-30T06:48:48;4.28;;;2.38;;
22070;SDS011;11200;51.488;6.668;2023-07-30T06:51:13;4.22;;;2.10;;
22070;SDS011;11200;51.488;6.668;2023-07-30T06:53:39;4.43;;;2.20;;
22070;SDS011;11200;51.488;6.668;2023-07-30T06:56:05;2.78;;;1.98;;
22070;SDS011;11200;51.488;6.668;2023-07-30T06:58:30;4.70;;;2.28;;
22070;SDS011;11200;51.488;6.668;2023-07-30T07:00:56;3.85;;;2.22;;
22070;SDS011;11200;51.488;6.668;2023-07-30T07:03:21;3.70;;;1.90;;
22070;SDS011;11200;51.488;6.668;2023-07-30T07:05:54;5.32;;;2.22;;
22070;SDS011;11200;51.488;6.668;2023-07-30T07:08:20;3.42;;;2.13;;
22070;SDS011;11200;51.488;6.668;2023-07-30T07:10:46;4.10;;;1.90;;
22070;SDS011;11200;51.488;6.668;2023-07-30T07:13:12;2.72;;;1.73;;
22070;SDS011;11200;51.488;6.668;2023-07-30T07:15:40;3.38;;;1.98;;
22070;SDS011;11200;51.488;6.668;2023-07-30T07:18:07;4.32;;;2.00;;
22070;SDS011;11200;51.488;6.668;2023-07-30T07:20:32;4.72;;;2.20;;
22070;SDS011;11200;51.488;6.668;2023-07-30T07:22:58;3.08;;;1.85;;
22070;SDS011;11200;51.488;6.668;2023-07-30T07:25:24;4.25;;;2.08;;
22070;SDS011;11200;51.488;6.668;2023-07-30T07:27:50;3.53;;;1.80;;
22070;SDS011;11200;51.488;6.668;2023-07-30T07:30:15;4.75;;;2.20;;
22070;SDS011;11200;51.488;6.668;2023-07-30T07:32:41;2.72;;;1.70;;
22070;SDS011;11200;51.488;6.668;2023-07-30T07:35:07;5.05;;;2.15;;
22070;SDS011;11200;51.488;6.668;2023-07-30T07:37:33;3.80;;;2.10;;
22070;SDS011;11200;51.488;6.668;2023-07-30T07:39:59;3.53;;;1.90;;
22070;SDS011;11200;51.488;6.668;2023-07-30T07:42:24;3.67;;;2.10;;
22070;SDS011;11200;51.488;6.668;2023-07-30T07:44:50;3.97;;;1.90;;
22070;SDS011;11200;51.488;6.668;2023-07-30T07:47:16;4.40;;;2.10;;
22070;SDS011;11200;51.488;6.668;2023-07-30T07:49:41;3.70;;;2.05;;
22070;SDS011;11200;51.488;6.668;2023-07-30T07:52:07;3.75;;;1.85;;
22070;SDS011;11200;51.488;6.668;2023-07-30T07:54:33;3.65;;;1.88;;
22070;SDS011;11200;51.488;6.668;2023-07-30T07:56:59;4.22;;;2.13;;
22070;SDS011;11200;51.488;6.668;2023-07-30T07:59:25;4.40;;;1.90;;
22070;SDS011;11200;51.488;6.668;2023-07-30T08:01:52;4.45;;;2.10;;
22070;SDS011;11200;51.488;6.668;2023-07-30T08:04:18;4.03;;;1.83;;
22070;SDS011;11200;51.488;6.668;2023-07-30T08:06:46;3.67;;;2.00;;
22070;SDS011;11200;51.488;6.668;2023-07-30T08:09:12;3.72;;;1.80;;
22070;SDS011;11200;51.488;6.668;2023-07-30T08:11:38;3.25;;;1.70;;
22070;SDS011;11200;51.488;6.668;2023-07-30T08:14:04;3.25;;;2.20;;
22070;SDS011;11200;51.488;6.668;2023-07-30T08:16:30;5.10;;;2.08;;
22070;SDS011;11200;51.488;6.668;2023-07-30T08:18:55;5.03;;;1.80;;
22070;SDS011;11200;51.488;6.668;2023-07-30T08:21:21;4.32;;;2.10;;
22070;SDS011;11200;51.488;6.668;2023-07-30T08:23:47;3.63;;;1.80;;
22070;SDS011;11200;51.488;6.668;2023-07-30T08:26:12;5.28;;;1.90;;
22070;SDS011;11200;51.488;6.668;2023-07-30T08:28:38;4.18;;;2.20;;
22070;SDS011;11200;51.488;6.668;2023-07-30T08:31:04;3.63;;;1.75;;
22070;SDS011;11200;51.488;6.668;2023-07-30T08:33:30;3.97;;;1.77;;
22070;SDS011;11200;51.488;6.668;2023-07-30T08:35:56;3.45;;;1.88;;
22070;SDS011;11200;51.488;6.668;2023-07-30T08:38:23;4.03;;;2.00;;
22070;SDS011;11200;51.488;6.668;2023-07-30T08:40:51;4.97;;;2.13;;
22070;SDS011;11200;51.488;6.668;2023-07-30T08:43:18;3.70;;;1.90;;
22070;SDS011;11200;51.488;6.668;2023-07-30T08:45:44;5.13;;;2.00;;
22070;SDS011;11200;51.488;6.668;2023-07-30T08:48:10;4.97;;;1.92;;
22070;SDS011;11200;51.488;6.668;2023-07-30T08:50:35;5.43;;;2.00;;
22070;SDS011;11200;51.488;6.668;2023-07-30T08:53:02;3.72;;;1.88;;
22070;SDS011;11200;51.488;6.668;2023-07-30T08:55:29;4.63;;;2.10;;
22070;SDS011;11200;51.488;6.668;2023-07-30T08:57:58;4.45;;;2.05;;
22070;SDS011;11200;51.488;6.668;2023-07-30T09:00:26;3.28;;;1.80;;
22070;SDS011;11200;51.488;6.668;2023-07-30T09:02:59;4.93;;;1.92;;
22070;SDS011;11200;51.488;6.668;2023-07-30T09:05:25;5.90;;;2.10;;
22070;SDS011;11200;51.488;6.668;2023-07-30T09:07:54;4.50;;;2.00;;
22070;SDS011;11200;51.488;6.668;2023-07-30T09:10:20;3.58;;;1.77;;
22070;SDS011;11200;51.488;6.668;2023-07-30T09:12:52;4.22;;;2.20;;
22070;SDS011;11200;51.488;6.668;2023-07-30T09:15:20;3.65;;;1.92;;
22070;SDS011;11200;51.488;6.668;2023-07-30T09:17:56;4.78;;;2.10;;
22070;SDS011;11200;51.488;6.668;2023-07-30T09:20:21;5.28;;;2.10;;
22070;SDS011;11200;51.488;6.668;2023-07-30T09:22:47;5.00;;;2.08;;
22070;SDS011;11200;51.488;6.668;2023-07-30T09:25:17;5.28;;;2.03;;
22070;SDS011;11200;51.488;6.668;2023-07-30T09:27:47;5.63;;;2.20;;
22070;SDS011;11200;51.488;6.668;2023-07-30T09:30:14;4.43;;;2.15;;
22070;SDS011;11200;51.488;6.668;2023-07-30T09:32:53;6.10;;;2.50;;
22070;SDS011;11200;51.488;6.668;2023-07-30T09:35:21;4.45;;;2.10;;
22070;SDS011;11200;51.488;6.668;2023-07-30T09:37:50;3.40;;;1.88;;
22070;SDS011;11200;51.488;6.668;2023-07-30T09:40:30;5.22;;;2.00;;
22070;SDS011;11200;51.488;6.668;2023-07-30T09:43:08;5.57;;;2.25;;
22070;SDS011;11200;51.488;6.668;2023-07-30T09:45:35;6.22;;;2.15;;
22070;SDS011;11200;51.488;6.668;2023-07-30T09:48:02;4.10;;;1.95;;
22070;SDS011;11200;51.488;6.668;2023-07-30T09:50:36;5.07;;;2.10;;
22070;SDS011;11200;51.488;6.668;2023-07-30T09:53:02;4.53;;;2.25;;
22070;SDS011;11200;51.488;6.668;2023-07-30T09:55:29;5.75;;;2.22;;
22070;SDS011;11200;51.488;6.668;2023-07-30T09:57:55;5.43;;;2.30;;
22070;SDS011;11200;51.488;6.668;2023-07-30T10:00:21;3.78;;;1.77;;
22070;SDS011;11200;51.488;6.668;2023-07-30T10:02:47;6.35;;;1.98;;
22070;SDS011;11200;51.488;6.668;2023-07-30T10:05:18;5.80;;;1.95;;
22070;SDS011;11200;51.488;6.668;2023-07-30T10:08:05;6.72;;;2.10;;
22070;SDS011;11200;51.488;6.668;2023-07-30T10:10:35;6.10;;;2.13;;
22070;SDS011;11200;51.488;6.668;2023-07-30T10:13:03;6.30;;;1.90;;
22070;SDS011;11200;51.488;6.668;2023-07-30T10:15:35;5.63;;;2.25;;
22070;SDS011;11200;51.488;6.668;2023-07-30T10:18:02;4.90;;;2.20;;
22070;SDS011;11200;51.488;6.668;2023-07-30T10:20:28;4.22;;;1.75;;
22070;SDS011;11200;51.488;6.668;2023-07-30T10:22:59;5.03;;;1.98;;
22070;SDS011;11200;51.488;6.668;2023-07-30T10:25:30;6.03;;;1.90;;
22070;SDS011;11200;51.488;6.668;2023-07-30T10:30:59;4.55;;;1.90;;
22070;SDS011;11200;51.488;6.668;2023-07-30T10:36:36;4.90;;;2.00;;
22070;SDS011;11200;51.488;6.668;2023-07-30T10:39:13;5.53;;;1.90;;
22070;SDS011;11200;51.488;6.668;2023-07-30T10:41:50;5.18;;;1.90;;
22070;SDS011;11200;51.488;6.668;2023-07-30T10:46:48;4.28;;;1.90;;
22070;SDS011;11200;51.488;6.668;2023-07-30T10:49:14;4.55;;;2.38;;
22070;SDS011;11200;51.488;6.668;2023-07-30T10:51:39;3.25;;;1.60;;
22070;SDS011;11200;51.488;6.668;2023-07-30T10:54:05;4.30;;;1.75;;
22070;SDS011;11200;51.488;6.668;2023-07-30T10:56:37;4.88;;;1.75;;
22070;SDS011;11200;51.488;6.668;2023-07-30T10:59:05;4.65;;;1.75;;
22070;SDS011;11200;51.488;6.668;2023-07-30T11:01:35;4.28;;;1.85;;
22070;SDS011;11200;51.488;6.668;2023-07-30T11:06:38;6.53;;;2.38;;
22070;SDS011;11200;51.488;6.668;2023-07-30T11:09:04;5.45;;;1.92;;
22070;SDS011;11200;51.488;6.668;2023-07-30T11:11:31;4.38;;;1.83;;
22070;SDS011;11200;51.488;6.668;2023-07-30T11:13:57;3.45;;;1.60;;
22070;SDS011;11200;51.488;6.668;2023-07-30T11:16:24;4.00;;;1.73;;
22070;SDS011;11200;51.488;6.668;2023-07-30T11:18:49;4.30;;;1.83;;
22070;SDS011;11200;51.488;6.668;2023-07-30T11:21:16;3.58;;;1.60;;
22070;SDS011;11200;51.488;6.668;2023-07-30T11:23:43;3.60;;;1.92;;
22070;SDS011;11200;51.488;6.668;2023-07-30T11:26:14;3.42;;;1.73;;
22070;SDS011;11200;51.488;6.668;2023-07-30T11:28:44;2.50;;;1.30;;
22070;SDS011;11200;51.488;6.668;2023-07-30T11:31:12;2.78;;;1.50;;
22070;SDS011;11200;51.488;6.668;2023-07-30T11:33:44;4.90;;;1.60;;
22070;SDS011;11200;51.488;6.668;2023-07-30T11:36:18;3.65;;;1.60;;
22070;SDS011;11200;51.488;6.668;2023-07-30T11:38:46;3.58;;;1.63;;
22070;SDS011;11200;51.488;6.668;2023-07-30T11:41:13;4.38;;;1.80;;
22070;SDS011;11200;51.488;6.668;2023-07-30T11:43:41;4.40;;;1.67;;
22070;SDS011;11200;51.488;6.668;2023-07-30T11:46:26;4.43;;;1.80;;
22070;SDS011;11200;51.488;6.668;2023-07-30T11:48:53;3.75;;;1.67;;
22070;SDS011;11200;51.488;6.668;2023-07-30T11:51:35;2.88;;;1.30;;
22070;SDS011;11200;51.488;6.668;2023-07-30T11:54:01;4.80;;;1.80;;
22070;SDS011;11200;51.488;6.668;2023-07-30T11:56:28;3.35;;;1.52;;
22070;SDS011;11200;51.488;6.668;2023-07-30T11:58:56;3.70;;;1.52;;
22070;SDS011;11200;51.488;6.668;2023-07-30T12:01:25;2.88;;;1.20;;
22070;SDS011;11200;51.488;6.668;2023-07-30T12:03:54;4.30;;;1.52;;
22070;SDS011;11200;51.488;6.668;2023-07-30T12:06:21;5.78;;;1.70;;
22070;SDS011;11200;51.488;6.668;2023-07-30T12:08:48;3.80;;;1.58;;
22070;SDS011;11200;51.488;6.668;2023-07-30T12:11:14;2.47;;;1.48;;
22070;SDS011;11200;51.488;6.668;2023-07-30T12:13:44;3.28;;;1.40;;
22070;SDS011;11200;51.488;6.668;2023-07-30T12:16:10;2.25;;;1.40;;
22070;SDS011;11200;51.488;6.668;2023-07-30T12:18:37;5.30;;;1.80;;
22070;SDS011;11200;51.488;6.668;2023-07-30T12:21:04;3.03;;;1.38;;
22070;SDS011;11200;51.488;6.668;2023-07-30T12:23:32;2.38;;;1.15;;
22070;SDS011;11200;51.488;6.668;2023-07-30T12:25:59;3.00;;;1.30;;
22070;SDS011;11200;51.488;6.668;2023-07-30T12:28:25;3.10;;;1.27;;
22070;SDS011;11200;51.488;6.668;2023-07-30T12:30:50;3.03;;;1.45;;
22070;SDS011;11200;51.488;6.668;2023-07-30T12:33:16;4.90;;;1.60;;
22070;SDS011;11200;51.488;6.668;2023-07-30T12:35:42;4.15;;;1.30;;
22070;SDS011;11200;51.488;6.668;2023-07-30T12:38:07;3.05;;;1.60;;
22070;SDS011;11200;51.488;6.668;2023-07-30T12:40:33;2.30;;;1.27;;
22070;SDS011;11200;51.488;6.668;2023-07-30T12:43:02;2.92;;;1.30;;
22070;SDS011;11200;51.488;6.668;2023-07-30T12:45:28;2.67;;;1.48;;
22070;SDS011;11200;51.488;6.668;2023-07-30T12:47:54;4.10;;;1.52;;
22070;SDS011;11200;51.488;6.668;2023-07-30T12:50:20;2.15;;;1.10;;
22070;SDS011;11200;51.488;6.668;2023-07-30T12:52:46;3.47;;;1.40;;
22070;SDS011;11200;51.488;6.668;2023-07-30T12:55:11;4.38;;;1.30;;
22070;SDS011;11200;51.488;6.668;2023-07-30T12:57:37;2.60;;;1.20;;
22070;SDS011;11200;51.488;6.668;2023-07-30T13:00:04;4.32;;;1.10;;
22070;SDS011;11200;51.488;6.668;2023-07-30T13:02:30;3.10;;;1.23;;
22070;SDS011;11200;51.488;6.668;2023-07-30T13:04:59;3.35;;;1.25;;
22070;SDS011;11200;51.488;6.668;2023-07-30T13:07:25;2.88;;;1.35;;
22070;SDS011;11200;51.488;6.668;2023-07-30T13:10:01;2.78;;;1.23;;
22070;SDS011;11200;51.488;6.668;2023-07-30T13:12:30;3.15;;;1.35;;
22070;SDS011;11200;51.488;6.668;2023-07-30T13:14:57;3.28;;;1.20;;
22070;SDS011;11200;51.488;6.668;2023-07-30T13:17:25;1.90;;;0.98;;
22070;SDS011;11200;51.488;6.668;2023-07-30T13:19:52;2.45;;;1.30;;
22070;SDS011;11200;51.488;6.668;2023-07-30T13:22:18;3.08;;;1.10;;
22070;SDS011;11200;51.488;6.668;2023-07-30T13:24:49;4.10;;;1.27;;
22070;SDS011;11200;51.488;6.668;2023-07-30T13:27:15;2.63;;;1.08;;
22070;SDS011;11200;51.488;6.668;2023-07-30T13:29:43;2.47;;;1.20;;
22070;SDS011;11200;51.488;6.668;2023-07-30T13:32:10;3.40;;;1.20;;
22070;SDS011;11200;51.488;6.668;2023-07-30T13:34:36;2.65;;;1.40;;
22070;SDS011;11200;51.488;6.668;2023-07-30T13:37:02;2.88;;;1.20;;
22070;SDS011;11200;51.488;6.668;2023-07-30T13:39:28;4.53;;;1.40;;
22070;SDS011;11200;51.488;6.668;2023-07-30T13:41:58;3.25;;;1.13;;
22070;SDS011;11200;51.488;6.668;2023-07-30T13:44:24;2.40;;;1.13;;
22070;SDS011;11200;51.488;6.668;2023-07-30T13:46:54;3.35;;;1.30;;
22070;SDS011;11200;51.488;6.668;2023-07-30T13:49:20;4.18;;;1.50;;
22070;SDS011;11200;51.488;6.668;2023-07-30T13:51:46;2.88;;;1.25;;
22070;SDS011;11200;51.488;6.668;2023-07-30T13:54:13;2.63;;;1.30;;
22070;SDS011;11200;51.488;6.668;2023-07-30T13:56:38;2.65;;;1.52;;
22070;SDS011;11200;51.488;6.668;2023-07-30T13:59:05;2.83;;;1.30;;
22070;SDS011;11200;51.488;6.668;2023-07-30T14:01:30;2.75;;;1.52;;
22070;SDS011;11200;51.488;6.668;2023-07-30T14:03:57;3.65;;;1.30;;
22070;SDS011;11200;51.488;6.668;2023-07-30T14:06:23;3.30;;;1.30;;
22070;SDS011;11200;51.488;6.668;2023-07-30T14:08:49;2.55;;;1.35;;
22070;SDS011;11200;51.488;6.668;2023-07-30T14:11:15;2.30;;;1.17;;
22070;SDS011;11200;51.488;6.668;2023-07-30T14:13:40;3.38;;;1.63;;
22070;SDS011;11200;51.488;6.668;2023-07-30T14:16:06;3.22;;;1.35;;
22070;SDS011;11200;51.488;6.668;2023-07-30T14:18:35;4.45;;;1.67;;
22070;SDS011;11200;51.488;6.668;2023-07-30T14:21:04;2.85;;;1.20;;
22070;SDS011;11200;51.488;6.668;2023-07-30T14:23:30;2.17;;;1.30;;
22070;SDS011;11200;51.488;6.668;2023-07-30T14:25:56;2.60;;;1.30;;
22070;SDS011;11200;51.488;6.668;2023-07-30T14:28:22;2.88;;;1.38;;
22070;SDS011;11200;51.488;6.668;2023-07-30T14:30:47;4.00;;;1.48;;
22070;SDS011;11200;51.488;6.668;2023-07-30T14:33:13;2.65;;;1.40;;
22070;SDS011;11200;51.488;6.668;2023-07-30T14:35:43;4.00;;;1.40;;
22070;SDS011;11200;51.488;6.668;2023-07-30T14:38:09;3.47;;;1.40;;
22070;SDS011;11200;51.488;6.668;2023-07-30T14:40:35;2.50;;;1.20;;
22070;SDS011;11200;51.488;6.668;2023-07-30T14:43:01;2.75;;;1.40;;
22070;SDS011;11200;51.488;6.668;2023-07-30T14:45:27;3.03;;;1.48;;
22070;SDS011;11200;51.488;6.668;2023-07-30T14:47:53;2.25;;;1.10;;
22070;SDS011;11200;51.488;6.668;2023-07-30T14:50:19;2.38;;;1.38;;
22070;SDS011;11200;51.488;6.668;2023-07-30T14:52:48;3.25;;;1.60;;
22070;SDS011;11200;51.488;6.668;2023-07-30T14:55:19;4.18;;;1.40;;
22070;SDS011;11200;51.488;6.668;2023-07-30T14:57:47;2.67;;;1.40;;
22070;SDS011;11200;51.488;6.668;2023-07-30T15:00:13;3.25;;;1.35;;